Bookmark and Share
Track history (hours):
 

David J. Cooper

More information available from US FCC via Universal Licensing System and Coast Guard Vessel Documentation Center.

Last reported at 2014-Apr-21 04:33 UTC. Time now 2014-Apr-21 04:48 UTC.
Position N 29°58' W 090°16'.

Length 29 m; draft 7 m.

Type: Tug. MMSI: 367510430.

NotesDate/timePositionNaut miles runAvg speedWind from/ knotsBaromVisibWave heightAir tempDewpointWater temp
2014-Apr-21 04:33N 29°58' W 090°16'5 0.4
2014-Apr-20 18:11N 29°56' W 090°21'5 5.7
2014-Apr-20 17:22N 29°60' W 090°25'0 0.0
2014-Apr-20 16:33N 29°60' W 090°25'5 1.6
2014-Apr-20 13:33N 29°56' W 090°21'1 0.4
2014-Apr-20 12:12N 29°56' W 090°21'1 0.6
2014-Apr-20 10:33N 29°56' W 090°20'1 1.0
2014-Apr-20 09:29N 29°56' W 090°21'2 1.5
2014-Apr-20 08:21N 29°57' W 090°23'0 0.0
2014-Apr-20 07:33N 29°57' W 090°23'1 1.3
2014-Apr-20 06:32N 29°56' W 090°22'4 3.3
2014-Apr-20 05:23N 29°58' W 090°18'3 0.6
2014-Apr-20 01:07N 29°56' W 090°20'1 0.6
2014-Apr-19 23:08N 29°56' W 090°19'0 0.0
2014-Apr-19 21:30N 29°56' W 090°19'2 0.1
2014-Apr-18 11:06N 29°56' W 090°21'0 0.0
2014-Apr-18 09:33N 29°56' W 090°21'1 0.2
2014-Apr-18 01:28N 29°56' W 090°20'2 1.0
2014-Apr-17 23:32N 29°57' W 090°22'0 0.1
2014-Apr-17 22:32N 29°56' W 090°22'3 0.3
2014-Apr-17 11:33N 29°56' W 090°19'1 1.0
2014-Apr-17 10:30N 29°57' W 090°18'3 2.9
2014-Apr-17 09:27N 29°56' W 090°21'1 0.6
2014-Apr-17 07:28N 29°56' W 090°20'0 0.0
2014-Apr-17 04:30N 29°56' W 090°20'0 0.1
2014-Apr-17 02:05N 29°56' W 090°20'1 1.6
2014-Apr-17 01:15N 29°56' W 090°21'4 5.9
2014-Apr-17 00:33N 29°59' W 090°24'0 0.0
2014-Apr-16 23:32N 29°59' W 090°24'2 2.3
2014-Apr-16 22:29N 29°57' W 090°23'3 0.1
2014-Apr-16 01:22N 29°56' W 090°20'4 0.2
2014-Apr-15 10:34N 29°58' W 090°24'1 1.3
2014-Apr-15 09:34N 29°59' W 090°24'0 0.2
2014-Apr-15 07:32N 29°59' W 090°24'3 0.5
2014-Apr-15 00:31N 29°56' W 090°21'1 0.6
2014-Apr-14 23:33N 29°56' W 090°21'2 0.1
2014-Apr-14 09:33N 29°57' W 090°23'3 2.8
2014-Apr-14 08:29N 29°59' W 090°24'1 0.7
2014-Apr-14 07:32N 29°59' W 090°24'0 0.0
2014-Apr-14 06:32N 29°59' W 090°24'0 0.0
2014-Apr-14 05:32N 29°59' W 090°24'4 0.2
2014-Apr-13 08:08N 29°56' W 090°20'1 0.8
2014-Apr-13 07:19N 29°56' W 090°21'2 0.2
2014-Apr-12 22:33N 29°56' W 090°19'2 0.1
2014-Apr-11 08:25N 29°56' W 090°21'3 3.8
2014-Apr-11 07:32N 29°59' W 090°24'0 0.0
2014-Apr-11 06:32N 29°59' W 090°24'0 0.0
2014-Apr-11 05:32N 29°59' W 090°24'  

Dump ship's entire track history

sailing weather and tide predictions

David J. Cooper — WDF9940 — position and weather